Time;durP1;ratioP1;P1;durP2;ratioP2;P2;SDS_P1;SDS_P2;PMS_P1;PMS_P2;Temp;Humidity;BMP_temperature;BMP_pressure;BME280_temperature;BME280_humidity;BME280_pressure;Samples;Min_cycle;Max_cycle;Signal;HPM_P1;HPM_P2
2023/06/27 00:00:57;;;;;;;4.03;2.33;;;;;;;18.19;74.14;101565.66;6124692;28;20289;-68
2023/06/27 00:04:19;;;;;;;5.65;2.35;;;;;;;17.97;74.93;101560.84;6133346;28;20231;-69
2023/06/27 00:07:42;;;;;;;5.65;2.53;;;;;;;18.09;75.02;101564.97;6110434;28;20238;-69
2023/06/27 00:11:04;;;;;;;2.33;2.00;;;;;;;17.95;74.92;101581.13;6123945;28;20256;-68
2023/06/27 00:14:25;;;;;;;5.68;2.45;;;;;;;17.74;74.76;101578.00;6131632;28;20238;-69
2023/06/27 00:17:46;;;;;;;5.95;3.00;;;;;;;17.74;75.02;101578.88;6130059;28;20625;-69
2023/06/27 00:21:07;;;;;;;5.85;2.60;;;;;;;17.72;75.70;101580.03;6117654;28;20235;-68
2023/06/27 00:24:28;;;;;;;4.18;2.40;;;;;;;17.69;75.61;101580.38;6123345;28;20251;-69
2023/06/27 00:27:53;;;;;;;14.25;2.63;;;;;;;17.48;75.72;101576.16;6122768;28;20685;-69
2023/06/27 00:31:14;;;;;;;15.07;3.13;;;;;;;17.77;76.00;101580.41;6127362;28;20268;-69
2023/06/27 00:34:35;;;;;;;4.30;2.38;;;;;;;17.58;76.22;101585.09;6120246;28;20232;-69
2023/06/27 00:37:56;;;;;;;10.88;3.03;;;;;;;17.63;76.16;101587.34;6118829;28;20239;-68
2023/06/27 00:41:18;;;;;;;6.15;2.78;;;;;;;17.34;77.16;101584.97;6115346;28;20228;-68
2023/06/27 00:44:40;;;;;;;3.05;2.20;;;;;;;17.07;77.73;101590.59;6119876;28;20281;-69
2023/06/27 00:48:02;;;;;;;6.10;2.00;;;;;;;17.26;77.76;101584.91;6132763;28;20644;-69
2023/06/27 00:51:25;;;;;;;4.05;2.20;;;;;;;17.48;77.77;101594.41;6126134;28;20231;-69
2023/06/27 00:54:46;;;;;;;5.32;2.47;;;;;;;17.16;78.33;101589.63;6128063;28;20251;-69
2023/06/27 00:58:08;;;;;;;4.95;2.15;;;;;;;17.42;77.98;101581.41;6120736;28;20251;-69
2023/06/27 01:01:30;;;;;;;5.53;1.92;;;;;;;17.32;77.86;101581.53;6122929;28;20783;-68
2023/06/27 01:04:52;;;;;;;3.30;1.90;;;;;;;17.49;77.68;101582.47;6132042;28;20235;-69
2023/06/27 01:08:19;;;;;;;6.03;2.90;;;;;;;17.40;77.61;101581.56;6115268;28;20498;-68
2023/06/27 01:11:46;;;;;;;6.85;2.80;;;;;;;17.53;77.34;101583.88;6131220;28;20861;-69
2023/06/27 01:15:08;;;;;;;5.75;3.03;;;;;;;17.60;76.91;101584.09;6124596;28;20613;-69
2023/06/27 01:18:33;;;;;;;5.70;2.42;;;;;;;17.46;77.31;101585.50;6138759;28;20239;-69
2023/06/27 01:22:02;;;;;;;4.97;1.90;;;;;;;17.57;77.41;101579.81;6128682;28;20326;-68
2023/06/27 01:25:27;;;;;;;10.02;2.75;;;;;;;17.18;77.91;101593.06;6117752;28;20253;-69
2023/06/27 01:28:49;;;;;;;2.42;1.90;;;;;;;17.10;78.88;101601.19;6139740;28;20231;-69
2023/06/27 01:32:20;;;;;;;2.50;2.00;;;;;;;17.18;79.25;101586.75;6126594;28;20326;-68
2023/06/27 01:35:46;;;;;;;2.58;1.58;;;;;;;17.12;79.78;101599.16;6129383;28;20246;-69
2023/06/27 01:39:11;;;;;;;3.72;2.53;;;;;;;17.22;79.61;101602.63;6123050;28;20231;-69
2023/06/27 01:42:38;;;;;;;4.77;2.20;;;;;;;16.85;79.81;101599.31;6118475;28;20234;-69
2023/06/27 01:45:59;;;;;;;6.00;2.65;;;;;;;16.89;80.10;101597.97;6119965;28;20248;-69
2023/06/27 01:49:20;;;;;;;4.05;2.17;;;;;;;16.94;80.12;101598.31;6127303;28;20845;-70
2023/06/27 01:52:42;;;;;;;6.97;2.27;;;;;;;16.81;80.28;101589.75;6132619;28;20263;-69
2023/06/27 01:56:04;;;;;;;4.25;1.77;;;;;;;16.85;80.37;101593.00;6117140;28;20234;-69
2023/06/27 01:59:27;;;;;;;3.93;2.43;;;;;;;17.02;80.88;101603.81;6132011;28;20238;-69
2023/06/27 02:02:49;;;;;;;4.70;2.50;;;;;;;16.75;81.02;101590.38;6103811;28;20231;-69
2023/06/27 02:06:09;;;;;;;4.53;2.47;;;;;;;16.82;81.17;101591.44;6119621;28;22215;-69
2023/06/27 02:09:30;;;;;;;6.00;2.13;;;;;;;16.76;81.44;101590.22;6126150;28;20239;-69
2023/06/27 02:12:53;;;;;;;5.03;2.00;;;;;;;16.73;81.86;101582.34;6133059;28;20255;-69
2023/06/27 02:16:15;;;;;;;2.67;1.87;;;;;;;16.77;81.63;101577.47;6118140;28;20228;-68
2023/06/27 02:19:37;;;;;;;3.63;2.08;;;;;;;16.62;82.32;101584.47;6128977;28;20231;-69
2023/06/27 02:22:58;;;;;;;5.97;2.30;;;;;;;16.25;82.90;101584.63;6127314;28;20239;-69
2023/06/27 02:26:18;;;;;;;4.37;1.70;;;;;;;16.36;83.51;101573.50;6119943;28;20235;-68
2023/06/27 02:29:40;;;;;;;4.60;2.58;;;;;;;16.56;83.28;101582.41;6128563;28;20261;-70
2023/06/27 02:33:02;;;;;;;3.45;1.90;;;;;;;16.46;83.30;101584.28;6108913;28;20238;-69
2023/06/27 02:36:27;;;;;;;3.70;2.70;;;;;;;16.20;83.26;101586.97;6134157;28;20239;-69
2023/06/27 02:39:52;;;;;;;10.95;2.80;;;;;;;16.40;83.81;101576.75;6121760;28;20246;-68
2023/06/27 02:43:13;;;;;;;9.47;2.80;;;;;;;16.20;83.39;101586.09;6131549;28;20307;-69
2023/06/27 02:46:34;;;;;;;5.85;2.08;;;;;;;16.13;83.61;101576.84;6127257;28;20301;-69
2023/06/27 02:49:57;;;;;;;4.40;2.10;;;;;;;16.29;83.79;101563.41;6134631;28;20556;-69
2023/06/27 02:53:18;;;;;;;2.80;1.97;;;;;;;16.17;83.68;101559.19;6113777;28;20243;-69
2023/06/27 02:56:39;;;;;;;4.87;2.10;;;;;;;16.38;83.31;101563.31;6129644;28;20997;-69
2023/06/27 03:00:01;;;;;;;3.57;2.57;;;;;;;16.47;83.04;101583.28;6129868;28;20238;-68
2023/06/27 03:03:22;;;;;;;3.43;1.93;;;;;;;16.29;83.11;101586.00;6089838;28;20481;-68
2023/06/27 03:06:46;;;;;;;4.27;2.33;;;;;;;16.64;82.95;101575.16;6114740;28;20235;-69
2023/06/27 03:10:07;;;;;;;4.13;2.43;;;;;;;16.60;82.79;101568.31;6124967;28;20243;-69
2023/06/27 03:13:28;;;;;;;2.67;1.83;;;;;;;16.62;82.41;101581.75;6143408;28;20227;-70
2023/06/27 03:16:49;;;;;;;2.73;1.83;;;;;;;16.64;82.75;101579.72;6118687;28;20227;-69
2023/06/27 03:20:11;;;;;;;5.00;2.00;;;;;;;16.76;82.24;101578.47;6129235;28;20612;-69
2023/06/27 03:23:33;;;;;;;3.30;1.90;;;;;;;16.45;82.37;101583.47;6125012;28;20246;-68
2023/06/27 03:26:55;;;;;;;3.73;2.30;;;;;;;16.52;82.56;101581.81;6120369;28;20239;-69
2023/06/27 03:30:17;;;;;;;2.83;1.50;;;;;;;16.87;82.25;101593.69;6141946;28;20255;-68
2023/06/27 03:33:38;;;;;;;1.90;1.50;;;;;;;16.52;82.11;101595.44;6127867;28;20240;-69
2023/06/27 03:37:00;;;;;;;3.80;1.83;;;;;;;16.56;82.40;101599.56;6127828;28;20242;-68
2023/06/27 03:40:22;;;;;;;2.87;1.50;;;;;;;16.16;82.95;101592.84;6133647;28;20255;-68
2023/06/27 03:43:43;;;;;;;2.97;2.10;;;;;;;16.64;83.10;101585.19;6122567;28;20240;-67
2023/06/27 03:47:06;;;;;;;1.80;1.60;;;;;;;16.55;83.00;101588.84;6124258;28;20236;-70
2023/06/27 03:50:27;;;;;;;4.83;1.80;;;;;;;16.58;82.52;101581.19;6118154;28;20348;-69
2023/06/27 03:53:48;;;;;;;1.47;1.30;;;;;;;16.69;81.61;101583.69;6111426;28;20543;-69
2023/06/27 03:57:11;;;;;;;1.57;1.47;;;;;;;16.58;81.27;101580.38;6127691;28;20498;-68
2023/06/27 04:00:33;;;;;;;2.53;1.58;;;;;;;16.35;80.89;101595.44;6118899;28;20234;-68
2023/06/27 04:03:54;;;;;;;1.70;1.40;;;;;;;16.41;80.59;101592.09;6116300;28;20235;-71
2023/06/27 04:07:15;;;;;;;3.03;1.50;;;;;;;16.41;80.67;101583.91;6116978;28;20251;-69
2023/06/27 04:10:36;;;;;;;2.30;2.10;;;;;;;16.68;80.37;101575.69;6119350;28;20287;-69
2023/06/27 04:13:59;;;;;;;1.50;1.40;;;;;;;16.69;79.95;101578.22;6111382;28;20231;-68
2023/06/27 04:17:19;;;;;;;2.70;1.33;;;;;;;16.91;79.63;101592.34;6120032;28;20323;-69
2023/06/27 04:20:40;;;;;;;1.47;1.30;;;;;;;17.04;79.00;101590.06;6112105;28;20227;-69
2023/06/27 04:24:01;;;;;;;4.30;1.60;;;;;;;16.74;78.81;101586.78;6132839;28;20536;-69
2023/06/27 04:27:23;;;;;;;3.20;2.03;;;;;;;17.09;78.24;101584.97;6111866;28;20625;-69
2023/06/27 04:30:45;;;;;;;3.13;1.50;;;;;;;16.93;78.03;101591.19;6116927;28;20262;-69
2023/06/27 04:34:08;;;;;;;3.33;1.67;;;;;;;17.20;77.58;101591.03;6132923;28;20243;-70
2023/06/27 04:37:29;;;;;;;1.30;1.00;;;;;;;16.89;77.73;101588.94;6116265;28;20302;-70
2023/06/27 04:40:50;;;;;;;3.00;1.10;;;;;;;16.77;78.14;101593.81;6114843;28;20234;-69
2023/06/27 04:44:11;;;;;;;3.77;1.80;;;;;;;16.72;78.43;101591.53;6125343;28;20290;-68
2023/06/27 04:47:35;;;;;;;1.70;1.17;;;;;;;17.04;77.96;101603.69;6127668;28;20243;-69
2023/06/27 04:50:56;;;;;;;6.03;1.57;;;;;;;16.67;78.08;101587.56;6112079;28;20496;-72
2023/06/27 04:54:17;;;;;;;4.57;2.07;;;;;;;17.79;78.00;101583.81;6130157;28;20314;-66
2023/06/27 04:57:38;;;;;;;1.50;1.40;;;;;;;17.92;76.57;101586.94;6112400;28;20263;-67
2023/06/27 05:00:59;;;;;;;1.93;1.60;;;;;;;17.84;75.09;101595.06;6108721;28;20326;-67
2023/06/27 05:04:21;;;;;;;3.97;1.50;;;;;;;18.78;74.79;101613.69;6125854;28;20231;-67
2023/06/27 05:07:42;;;;;;;2.13;1.73;;;;;;;18.85;73.49;101614.72;6130241;28;20231;-68
2023/06/27 05:11:03;;;;;;;3.50;1.67;;;;;;;19.09;73.50;101611.94;6122219;28;20234;-67
2023/06/27 05:14:24;;;;;;;3.58;1.77;;;;;;;18.62;73.12;101604.66;6132975;28;20239;-66
2023/06/27 05:17:50;;;;;;;2.45;1.10;;;;;;;17.89;73.67;101599.03;6131660;28;20481;-67
2023/06/27 05:21:12;;;;;;;2.13;1.38;;;;;;;18.00;75.26;101598.72;6125129;28;20600;-67
2023/06/27 05:24:33;;;;;;;2.60;1.33;;;;;;;17.92;76.15;101586.94;6134211;28;20609;-67
2023/06/27 05:27:54;;;;;;;2.42;1.27;;;;;;;18.19;76.42;101594.84;6116657;28;20266;-67
2023/06/27 05:31:15;;;;;;;1.40;1.10;;;;;;;18.48;75.47;101600.72;6132121;28;20305;-67
2023/06/27 05:34:36;;;;;;;3.10;2.22;;;;;;;18.29;75.57;101604.56;6140852;28;20507;-67
2023/06/27 05:37:59;;;;;;;2.08;1.30;;;;;;;18.09;76.19;101597.72;6135308;28;20604;-67
2023/06/27 05:41:19;;;;;;;1.67;1.58;;;;;;;17.93;77.40;101594.97;6127565;28;20230;-66
2023/06/27 05:44:40;;;;;;;1.20;1.15;;;;;;;17.46;78.53;101589.09;6141039;28;20278;-66
2023/06/27 05:48:02;;;;;;;2.88;1.75;;;;;;;17.36;80.58;101593.81;6130859;28;20235;-68
2023/06/27 05:51:23;;;;;;;3.85;2.33;;;;;;;17.03;82.26;101570.13;6124059;28;20541;-68
2023/06/27 05:54:45;;;;;;;3.90;1.67;;;;;;;17.61;82.76;101575.75;6145949;28;20242;-67
2023/06/27 05:58:06;;;;;;;3.58;2.00;;;;;;;17.25;83.21;101579.63;6135911;28;20230;-67
2023/06/27 06:01:26;;;;;;;6.13;2.22;;;;;;;17.58;83.08;101568.72;6138877;28;20235;-66
2023/06/27 06:04:47;;;;;;;3.85;1.50;;;;;;;17.55;82.65;101576.41;6144157;28;20254;-67
2023/06/27 06:08:08;;;;;;;6.18;1.73;;;;;;;17.75;82.28;101574.28;6127378;28;20227;-66
2023/06/27 06:11:30;;;;;;;8.38;1.60;;;;;;;18.16;82.23;101579.66;6129363;28;20230;-67
2023/06/27 06:14:51;;;;;;;1.70;1.60;;;;;;;17.84;81.95;101575.97;6147437;28;20236;-66
2023/06/27 06:18:11;;;;;;;1.70;1.60;;;;;;;17.97;81.42;101579.97;6150689;28;20242;-66
2023/06/27 06:21:32;;;;;;;2.72;1.50;;;;;;;17.43;81.40;101572.22;6140332;28;20245;-67
2023/06/27 06:24:53;;;;;;;3.13;1.60;;;;;;;17.66;80.86;101573.38;6138060;28;20660;-67
2023/06/27 06:28:15;;;;;;;2.40;1.97;;;;;;;17.65;80.64;101576.28;6146507;28;20234;-67
2023/06/27 06:31:36;;;;;;;3.20;1.50;;;;;;;18.19;80.71;101578.47;6122130;28;20311;-66
2023/06/27 06:34:57;;;;;;;4.75;1.80;;;;;;;17.91;80.43;101566.13;6134328;28;20230;-67
2023/06/27 06:38:18;;;;;;;4.05;2.05;;;;;;;17.78;79.84;101572.06;6123021;28;20239;-66
2023/06/27 06:41:39;;;;;;;2.07;1.77;;;;;;;17.75;80.93;101575.13;6131709;28;20664;-67
2023/06/27 06:45:08;;;;;;;2.20;1.83;;;;;;;17.67;80.95;101568.78;6130729;28;20346;-66
2023/06/27 06:48:30;;;;;;;3.80;1.83;;;;;;;18.07;80.30;101575.19;6138859;28;20231;-66
2023/06/27 06:51:51;;;;;;;2.42;1.30;;;;;;;18.94;79.15;101577.31;6130512;28;20218;-67
2023/06/27 06:55:12;;;;;;;4.22;1.50;;;;;;;18.47;77.95;101574.44;6144000;28;20621;-66
2023/06/27 06:58:33;;;;;;;4.32;1.40;;;;;;;18.68;76.89;101569.31;6137902;28;20239;-66
2023/06/27 07:01:55;;;;;;;3.30;1.75;;;;;;;19.22;75.81;101575.00;6124121;28;20252;-66
2023/06/27 07:05:16;;;;;;;3.03;1.70;;;;;;;19.21;75.01;101570.59;6131965;28;20231;-67
2023/06/27 07:08:38;;;;;;;3.78;1.52;;;;;;;19.39;74.60;101573.97;6125197;28;20239;-67
2023/06/27 07:11:59;;;;;;;2.85;1.15;;;;;;;19.34;74.40;101566.28;6121178;28;20501;-67
2023/06/27 07:15:21;;;;;;;3.25;1.40;;;;;;;19.38;74.14;101577.75;6138983;28;20267;-66
2023/06/27 07:18:44;;;;;;;8.15;1.98;;;;;;;19.28;74.26;101575.16;6132546;28;20243;-67
2023/06/27 07:22:06;;;;;;;4.35;1.63;;;;;;;19.04;73.62;101569.78;6136867;28;20243;-67
2023/06/27 07:25:28;;;;;;;8.10;1.83;;;;;;;18.69;74.74;101572.91;6120557;28;20224;-67
2023/06/27 07:28:49;;;;;;;2.38;2.10;;;;;;;18.38;75.53;101578.13;6130947;28;20235;-66
2023/06/27 07:32:11;;;;;;;3.47;1.65;;;;;;;18.56;75.85;101587.06;6132023;28;20234;-67
2023/06/27 07:35:33;;;;;;;4.78;1.75;;;;;;;18.85;75.56;101568.28;6122623;28;20658;-67
2023/06/27 07:38:58;;;;;;;2.50;1.73;;;;;;;18.31;75.42;101561.56;6140843;28;21278;-67
2023/06/27 07:42:19;;;;;;;2.30;1.98;;;;;;;18.43;76.33;101553.91;6119723;28;20227;-67
2023/06/27 07:45:40;;;;;;;1.80;1.40;;;;;;;18.78;76.31;101553.59;6115747;28;20330;-67
2023/06/27 07:49:01;;;;;;;3.72;2.38;;;;;;;19.12;75.97;101559.69;6141701;28;20243;-68
2023/06/27 07:52:23;;;;;;;3.65;1.52;;;;;;;19.19;75.83;101569.91;6119763;28;20234;-67
2023/06/27 07:55:44;;;;;;;1.52;1.23;;;;;;;18.78;75.22;101564.50;6104230;28;20246;-66
2023/06/27 07:59:08;;;;;;;4.88;1.88;;;;;;;18.44;76.36;101566.56;6118399;28;20490;-67
2023/06/27 08:02:29;;;;;;;2.13;1.23;;;;;;;18.56;77.27;101578.03;6132368;28;20234;-67
2023/06/27 08:05:50;;;;;;;1.23;1.15;;;;;;;18.82;77.44;101590.47;6122860;28;20306;-66
2023/06/27 08:09:12;;;;;;;2.65;1.80;;;;;;;19.15;77.29;101592.13;6142791;28;20322;-67
2023/06/27 08:12:33;;;;;;;8.10;1.92;;;;;;;18.78;77.96;101586.38;6122129;28;20242;-67
2023/06/27 08:15:54;;;;;;;3.67;1.48;;;;;;;18.92;78.36;101582.09;6119207;28;20258;-67
2023/06/27 08:19:15;;;;;;;5.07;1.92;;;;;;;18.23;79.42;101566.19;6138780;28;20227;-67
2023/06/27 08:22:35;;;;;;;4.05;2.25;;;;;;;18.23;79.97;101561.56;6132816;28;20242;-67
2023/06/27 08:25:57;;;;;;;6.15;1.45;;;;;;;18.67;78.57;101573.06;6124491;28;20349;-67
2023/06/27 08:29:18;;;;;;;2.20;2.00;;;;;;;19.35;76.39;101578.09;6139256;28;20239;-68
2023/06/27 08:32:39;;;;;;;3.33;0.98;;;;;;;19.68;75.99;101585.16;6112919;28;20232;-66
2023/06/27 08:36:00;;;;;;;6.38;2.40;;;;;;;19.53;75.68;101573.22;6121418;28;20273;-66
2023/06/27 08:39:21;;;;;;;3.63;1.50;;;;;;;19.58;75.34;101577.16;6114185;28;20223;-67
2023/06/27 08:42:43;;;;;;;1.85;1.48;;;;;;;18.76;75.90;101588.44;6138963;28;20239;-67
2023/06/27 08:46:08;;;;;;;5.60;1.05;;;;;;;18.73;76.91;101585.19;6123259;28;20567;-66
2023/06/27 08:49:33;;;;;;;3.53;2.33;;;;;;;18.25;76.85;101572.34;6136766;28;20235;-67
2023/06/27 08:52:56;;;;;;;4.57;1.88;;;;;;;18.21;76.79;101563.63;6135655;28;20545;-66
2023/06/27 08:56:20;;;;;;;3.33;1.30;;;;;;;18.60;77.22;101566.59;6121318;28;20311;-66
2023/06/27 08:59:47;;;;;;;2.50;1.98;;;;;;;18.67;76.28;101574.97;6129819;28;20227;-67
2023/06/27 09:03:08;;;;;;;1.65;1.50;;;;;;;19.43;74.84;101580.78;6131067;28;20242;-68
2023/06/27 09:06:30;;;;;;;6.88;1.60;;;;;;;19.80;72.67;101570.88;6128007;28;20317;-70
2023/06/27 09:09:51;;;;;;;1.50;1.20;;;;;;;20.39;70.36;101561.13;6138051;28;20258;-69
2023/06/27 09:13:13;;;;;;;1.38;0.95;;;;;;;20.44;69.64;101557.84;6121905;28;20223;-68
2023/06/27 09:16:35;;;;;;;0.93;0.70;;;;;;;20.08;69.06;101554.81;6126185;28;20262;-69
2023/06/27 09:19:56;;;;;;;4.05;1.67;;;;;;;20.49;68.53;101548.03;6137830;28;20330;-68
2023/06/27 09:23:18;;;;;;;1.88;1.17;;;;;;;20.52;66.41;101546.81;6132483;28;20239;-68
2023/06/27 09:26:39;;;;;;;1.23;0.90;;;;;;;20.55;65.84;101538.22;6129418;28;20237;-69
2023/06/27 09:30:01;;;;;;;1.80;1.27;;;;;;;20.41;64.50;101542.63;6136460;28;20266;-68
2023/06/27 09:33:23;;;;;;;1.25;1.05;;;;;;;20.65;63.16;101531.44;6134584;28;20223;-68
2023/06/27 09:36:44;;;;;;;2.47;1.17;;;;;;;20.73;62.86;101539.56;6115301;28;20234;-67
2023/06/27 09:40:17;;;;;;;1.65;1.40;;;;;;;20.64;63.17;101534.38;6130064;28;20242;-69
2023/06/27 09:43:38;;;;;;;1.35;1.05;;;;;;;21.16;63.33;101546.19;6128541;28;20845;-69
2023/06/27 09:46:59;;;;;;;4.60;1.60;;;;;;;21.64;61.99;101539.25;6121739;28;20243;-68
2023/06/27 09:50:27;;;;;;;0.93;0.93;;;;;;;21.12;62.42;101550.38;6127349;28;20247;-68
2023/06/27 09:53:54;;;;;;;3.30;1.17;;;;;;;22.02;61.69;101543.56;6129014;28;20230;-68
2023/06/27 09:57:21;;;;;;;1.48;1.17;;;;;;;21.61;60.26;101542.38;6133793;28;20238;-67
2023/06/27 10:00:42;;;;;;;3.30;0.95;;;;;;;21.83;60.61;101535.94;6120211;28;20306;-68
2023/06/27 10:04:02;;;;;;;0.82;0.77;;;;;;;;;;6139474;28;20239;-68
2023/06/27 10:07:25;;;;;;;4.70;1.35;;;;;;;21.63;59.24;101531.22;6122327;28;20240;-68
2023/06/27 10:10:46;;;;;;;6.70;1.50;;;;;;;21.80;59.83;101532.72;6119298;28;20255;-67
2023/06/27 10:14:08;;;;;;;1.50;1.15;;;;;;;22.53;59.04;101526.97;6139969;28;20321;-69
2023/06/27 10:17:29;;;;;;;2.45;1.10;;;;;;;21.99;58.82;101516.47;6113684;28;20926;-68
2023/06/27 10:20:50;;;;;;;1.63;1.23;;;;;;;22.16;58.55;101528.06;6120508;28;20227;-68
2023/06/27 10:24:14;;;;;;;1.27;1.13;;;;;;;21.99;57.53;101513.72;6140026;28;20239;-68
2023/06/27 10:27:38;;;;;;;1.88;0.90;;;;;;;21.65;57.08;101512.66;6131125;28;20270;-68
2023/06/27 10:30:58;;;;;;;3.97;0.90;;;;;;;21.80;56.81;101497.03;6121380;28;20250;-67
2023/06/27 10:34:21;;;;;;;1.70;1.05;;;;;;;22.17;57.44;101494.91;6138207;28;20224;-69
2023/06/27 10:37:42;;;;;;;1.02;0.52;;;;;;;22.25;57.22;101496.69;6125339;28;20614;-69
2023/06/27 10:41:12;;;;;;;3.47;1.90;;;;;;;21.81;58.61;101501.44;6125792;28;20262;-67
2023/06/27 10:44:36;;;;;;;1.77;1.25;;;;;;;22.36;58.34;101507.16;6125742;28;20230;-68
2023/06/27 10:48:03;;;;;;;9.15;1.85;;;;;;;21.49;58.84;101494.53;6136260;28;20235;-68
2023/06/27 10:51:25;;;;;;;2.65;1.10;;;;;;;21.69;58.64;101512.09;6117709;28;20236;-68
2023/06/27 10:54:47;;;;;;;1.00;0.90;;;;;;;21.77;57.52;101497.41;6135584;28;20235;-68
2023/06/27 10:58:14;;;;;;;4.78;1.58;;;;;;;21.45;57.31;101496.81;6133782;28;20234;-67
2023/06/27 11:01:35;;;;;;;1.25;1.15;;;;;;;21.38;58.71;101511.50;6132114;28;20226;-68
2023/06/27 11:04:56;;;;;;;3.75;1.10;;;;;;;21.95;58.49;101528.91;6140453;28;20589;-69
2023/06/27 11:08:18;;;;;;;2.22;1.10;;;;;;;21.65;58.42;101516.28;6117048;28;20354;-67
2023/06/27 11:11:40;;;;;;;7.40;1.25;;;;;;;21.61;58.93;101500.38;6131448;28;20593;-67
2023/06/27 11:15:02;;;;;;;0.80;0.60;;;;;;;21.97;58.31;101510.34;6134220;28;20239;-67
2023/06/27 11:18:25;;;;;;;2.20;1.25;;;;;;;22.36;58.64;101504.41;6121868;28;20236;-67
2023/06/27 11:21:46;;;;;;;1.65;1.00;;;;;;;22.09;59.75;101508.75;6132735;28;20231;-67
2023/06/27 11:25:12;;;;;;;2.10;1.08;;;;;;;22.06;55.89;101509.19;6137577;28;20231;-68
2023/06/27 11:28:34;;;;;;;0.65;0.50;;;;;;;22.28;53.30;101521.84;6133805;28;20239;-67
2023/06/27 11:31:57;;;;;;;1.60;0.60;;;;;;;22.33;53.94;101523.16;6113056;28;20243;-68
2023/06/27 11:35:18;;;;;;;1.40;0.95;;;;;;;22.16;55.54;101526.19;6129920;28;20239;-67
2023/06/27 11:38:39;;;;;;;2.53;0.98;;;;;;;22.33;56.28;101523.16;6125665;28;20350;-67
2023/06/27 11:42:00;;;;;;;2.17;1.23;;;;;;;23.15;56.05;101516.88;6126827;28;20517;-67
2023/06/27 11:45:22;;;;;;;0.80;0.80;;;;;;;23.23;53.76;101511.22;6114422;28;20239;-67
2023/06/27 11:48:44;;;;;;;2.92;0.73;;;;;;;22.28;52.27;101527.34;6130658;28;20232;-67
2023/06/27 11:52:06;;;;;;;4.53;1.10;;;;;;;22.43;52.76;101527.28;6120606;28;20247;-67
2023/06/27 11:55:27;;;;;;;1.25;1.00;;;;;;;21.70;53.99;101515.66;6134760;28;20653;-68
2023/06/27 11:58:49;;;;;;;4.03;1.33;;;;;;;21.40;55.90;101534.09;6131236;28;20299;-67
2023/06/27 12:02:10;;;;;;;1.50;1.33;;;;;;;21.18;55.52;101522.19;6118283;28;20244;-68
2023/06/27 12:05:34;;;;;;;1.45;0.88;;;;;;;21.95;55.55;101512.41;6127158;28;20243;-67
2023/06/27 12:08:55;;;;;;;2.67;1.38;;;;;;;22.06;54.70;101502.81;6132043;28;20239;-68
2023/06/27 12:12:16;;;;;;;3.75;1.35;;;;;;;22.84;54.35;101510.97;6135511;28;20548;-67
2023/06/27 12:15:44;;;;;;;1.10;1.00;;;;;;;22.85;53.99;101505.25;6117978;28;20605;-67
2023/06/27 12:19:06;;;;;;;3.10;1.02;;;;;;;23.57;54.30;101516.69;6144870;28;20238;-67
2023/06/27 12:22:28;;;;;;;2.80;1.05;;;;;;;22.92;54.17;101519.91;6116606;28;20596;-68
2023/06/27 12:25:49;;;;;;;1.52;1.08;;;;;;;22.25;56.58;101508.53;6126960;28;20521;-67
2023/06/27 12:29:13;;;;;;;1.42;1.33;;;;;;;20.07;61.48;101572.25;6139167;28;20617;-65
2023/06/27 12:32:34;;;;;;;1.00;0.90;;;;;;;19.44;64.78;101571.56;6133378;28;20246;-66
2023/06/27 12:35:55;;;;;;;0.60;0.60;;;;;;;19.59;65.57;101550.63;6111155;28;20231;-66
2023/06/27 12:39:17;;;;;;;0.63;0.63;;;;;;;19.63;66.09;101549.28;6138772;28;20238;-65
2023/06/27 12:42:38;;;;;;;1.38;0.90;;;;;;;19.80;66.74;101550.88;6134336;28;20353;-66
2023/06/27 12:46:00;;;;;;;0.60;0.60;;;;;;;20.61;65.88;101545.72;6125133;28;20254;-66
2023/06/27 12:49:23;;;;;;;1.33;0.70;;;;;;;21.94;63.52;101531.84;6137155;28;20231;-66
2023/06/27 12:52:47;;;;;;;0.88;0.88;;;;;;;22.43;62.01;101523.66;6138812;28;20234;-67
2023/06/27 12:56:09;;;;;;;3.15;1.40;;;;;;;22.15;61.65;101513.47;6121101;28;20868;-66
2023/06/27 12:59:31;;;;;;;5.32;1.55;;;;;;;21.91;63.40;101521.25;6118579;28;20334;-66
2023/06/27 13:02:52;;;;;;;1.23;0.90;;;;;;;21.51;62.68;101519.03;6110294;28;20236;-66
2023/06/27 13:06:13;;;;;;;1.20;1.10;;;;;;;22.52;61.38;101514.25;6116375;28;20536;-67
2023/06/27 13:09:33;;;;;;;2.00;0.85;;;;;;;22.53;60.39;101504.97;6112908;28;20232;-66
2023/06/27 13:12:56;;;;;;;1.65;0.80;;;;;;;22.51;59.31;101510.63;6123386;28;20235;-66
2023/06/27 13:16:18;;;;;;;3.72;1.00;;;;;;;22.48;58.44;101488.22;6106794;28;20255;-67
2023/06/27 13:19:39;;;;;;;3.85;1.63;;;;;;;22.59;59.32;101502.28;6130945;28;20322;-67
2023/06/27 13:23:02;;;;;;;5.05;0.98;;;;;;;22.73;57.05;101495.88;6134097;28;20781;-67
2023/06/27 13:26:22;;;;;;;1.67;0.77;;;;;;;23.93;53.73;101494.34;6112078;28;20258;-67
2023/06/27 13:29:44;;;;;;;1.88;1.00;;;;;;;22.95;55.15;101505.75;6137760;28;20254;-67
2023/06/27 13:33:06;;;;;;;3.28;0.95;;;;;;;23.35;52.71;101506.00;6126733;28;20329;-67
2023/06/27 13:36:27;;;;;;;1.85;0.95;;;;;;;22.08;53.84;101508.97;6119603;28;20231;-67
2023/06/27 13:39:48;;;;;;;1.02;0.93;;;;;;;21.87;53.91;101500.72;6120796;28;20517;-66
2023/06/27 13:43:09;;;;;;;2.65;1.08;;;;;;;23.18;52.63;101494.44;6139150;28;20373;-67
2023/06/27 13:46:31;;;;;;;6.43;1.08;;;;;;;23.48;51.28;101504.19;6124102;28;20265;-67
2023/06/27 13:49:52;;;;;;;1.42;1.17;;;;;;;25.60;47.38;101489.19;6132101;28;20235;-67
2023/06/27 13:53:13;;;;;;;1.77;1.05;;;;;;;26.78;45.78;101486.53;6120298;28;20231;-67
2023/06/27 13:56:34;;;;;;;2.42;1.25;;;;;;;26.39;46.48;101485.97;6115846;28;20609;-70
2023/06/27 13:59:55;;;;;;;1.52;1.25;;;;;;;26.79;45.81;101484.56;6116093;28;20319;-69
2023/06/27 14:03:19;;;;;;;2.42;1.10;;;;;;;24.99;48.10;101488.72;6113120;28;20279;-66
2023/06/27 14:06:39;;;;;;;2.55;0.95;;;;;;;23.69;50.98;101490.28;6131531;28;20314;-67
2023/06/27 14:10:00;;;;;;;0.70;0.70;;;;;;;22.73;53.29;101486.75;6133294;28;20238;-69
2023/06/27 14:13:21;;;;;;;3.45;1.40;;;;;;;22.23;54.03;101488.63;6103942;28;20226;-68
2023/06/27 14:16:42;;;;;;;2.92;1.45;;;;;;;22.59;53.82;101495.97;6116432;28;20321;-69
2023/06/27 14:20:07;;;;;;;2.10;1.30;;;;;;;23.68;52.41;101484.97;6129163;28;20235;-67
2023/06/27 14:23:29;;;;;;;2.83;1.10;;;;;;;24.77;50.32;101469.88;6101972;28;20243;-68
2023/06/27 14:26:52;;;;;;;1.38;1.23;;;;;;;24.60;50.88;101480.47;6130907;28;20687;-68
2023/06/27 14:30:13;;;;;;;2.08;1.38;;;;;;;23.58;51.83;101482.59;6132410;28;21070;-67
2023/06/27 14:33:34;;;;;;;3.45;1.67;;;;;;;23.65;52.97;101485.38;6127687;28;20684;-68
2023/06/27 14:36:56;;;;;;;1.67;1.55;;;;;;;24.03;52.41;101482.94;6124393;28;20315;-68
2023/06/27 14:40:17;;;;;;;1.95;1.25;;;;;;;23.77;52.96;101478.22;6133342;28;20249;-65
2023/06/27 14:43:38;;;;;;;2.05;1.85;;;;;;;24.12;53.39;101466.03;6130500;28;20228;-69
2023/06/27 14:46:59;;;;;;;12.88;2.17;;;;;;;23.54;52.55;101472.22;6130619;28;20238;-68
2023/06/27 14:50:20;;;;;;;3.75;1.40;;;;;;;23.90;53.35;101471.91;6127396;28;20679;-69
2023/06/27 14:53:42;;;;;;;3.22;1.67;;;;;;;23.79;52.43;101467.84;6129450;28;20234;-69
2023/06/27 14:57:04;;;;;;;1.73;1.25;;;;;;;24.59;51.38;101470.50;6127720;28;20230;-68
2023/06/27 15:00:25;;;;;;;3.65;1.58;;;;;;;24.13;50.68;101475.16;6121369;28;20239;-68
2023/06/27 15:03:46;;;;;;;7.25;1.65;;;;;;;24.41;51.47;101473.91;6115257;28;20327;-71
2023/06/27 15:07:07;;;;;;;3.65;1.92;;;;;;;24.43;51.27;101471.78;6126876;28;20234;-68
2023/06/27 15:10:29;;;;;;;3.38;1.65;;;;;;;24.63;51.95;101473.69;6115390;28;20250;-67
2023/06/27 15:13:50;;;;;;;3.95;1.83;;;;;;;25.20;51.04;101460.03;6133970;28;20243;-67
2023/06/27 15:17:11;;;;;;;4.95;1.80;;;;;;;24.86;52.04;101472.22;6132336;28;20226;-67
2023/06/27 15:20:32;;;;;;;4.53;1.38;;;;;;;23.61;53.46;101481.34;6123663;28;20239;-67
2023/06/27 15:23:53;;;;;;;2.50;1.70;;;;;;;23.48;53.76;101470.28;6135926;28;20235;-66
2023/06/27 15:27:15;;;;;;;1.50;1.40;;;;;;;23.24;54.84;101468.03;6120875;28;20595;-66
2023/06/27 15:30:36;;;;;;;4.40;1.48;;;;;;;22.96;55.66;101487.34;6112396;28;20255;-65
2023/06/27 15:33:57;;;;;;;4.85;1.98;;;;;;;21.96;62.47;101502.28;6120684;28;20231;-67
2023/06/27 15:37:17;;;;;;;4.13;2.10;;;;;;;21.17;66.36;101495.78;6122242;28;20325;-66
2023/06/27 15:40:38;;;;;;;2.78;1.85;;;;;;;21.29;67.74;101504.41;6109437;28;20259;-66